Nearby METAR Reports

 

KSJC - San Jose, California, USA
Distance from station: NE 9mi, 14km
Updated: Thu, 21-Sep-2017 7:53am PDT
Few Clouds
Few Clouds
 Wind from W
Wind: W 8 mph , 13 km/h
Temperature: 59°F , 15°C
Dew Point: 46°F , 8°C
Humidity: 63%
Barometer: 29.90 inHg , 1012.5 hPa
Clouds: Few Clouds
Visibility: 10 miles , 16 km
Cloud details: Few Clouds 2700 ft
2017/09/21 14:53 KSJC 211453Z 27007KT 10SM FEW027 15/08 A2990 RMK AO2 SLP124 T01500083 53008
KNUQ - Moffett Nas/Mtn, California, USA
Distance from station: N 9mi, 14km
Updated: Thu, 21-Sep-2017 7:56am PDT
Clear
Clear
 Wind from varies
Wind: varies 5 mph , 7 km/h
Temperature: 57°F , 14°C
Dew Point: 46°F , 8°C
Humidity: 67%
Barometer: 29.90 inHg , 1012.5 hPa
Clouds: Clear
Visibility: 10 miles , 16 km
2017/09/21 14:56 KNUQ 211456Z VRB04KT 10SM CLR 14/08 A2990 RMK AO2 SLP129 T01440083 53009
 
KPAO - Palo Alto, California, USA
Distance from station: NNW 14mi, 23km
Updated: Thu, 21-Sep-2017 7:47am PDT
Clear
Clear
 Wind from W
Wind: W 12 mph , 19 km/h
Temperature: 59°F , 15°C
Dew Point: 50°F , 10°C
Humidity: 72%
Barometer: 29.89 inHg , 1012.2 hPa
Clouds: Clear
Visibility: 10 miles , 16 km
2017/09/21 14:47 KPAO 211447Z 28010KT 10SM SKC 15/10 A2989
KRHV - San Jose/Reid, California, USA
Distance from station: ENE 12mi, 19km
Updated: Thu, 21-Sep-2017 7:50am PDT
Partly cloudy
Partly cloudy
 Wind from varies
Wind: varies 5 mph , 7 km/h
Temperature: 55°F , 13°C
Dew Point: 46°F , 8°C
Humidity: 72%
Barometer: 29.92 inHg , 1013.2 hPa
Clouds: Partly cloudy
Visibility: 10 miles , 16 km
Cloud details: Partly cloudy 3000 ft
2017/09/21 14:50 KRHV 211450Z VRB04KT 10SM SCT030 13/08 A2992
 
KOAK - Oakland, California, USA
Distance from station: NNW 31mi, 50km
Updated: Thu, 21-Sep-2017 7:53am PDT
Few Clouds
Few Clouds
 Wind from NNW
Wind: NNW 8 mph , 13 km/h
Temperature: 57°F , 14°C
Dew Point: 46°F , 8°C
Humidity: 67%
Barometer: 29.89 inHg , 1012.2 hPa
Clouds: Few Clouds
Visibility: 10 miles , 16 km
Cloud details: Few Clouds 1000 ft
2017/09/21 14:53 KOAK 211453Z 34007KT 10SM FEW010 14/08 A2989 RMK AO2 SLP122 T01440083 53011
KSQL - San Carlos Airpo, California, USA
Distance from station: NW 21mi, 34km
Updated: Thu, 21-Sep-2017 7:47am PDT
Clear
Clear
 Wind from W
Wind: W 9 mph , 15 km/h
Temperature: 57°F , 14°C
Dew Point: 48°F , 9°C
Humidity: 72%
Barometer: 29.90 inHg , 1012.5 hPa
Clouds: Clear
Visibility: 10 miles , 16 km
2017/09/21 14:47 KSQL 211447Z 26008KT 10SM SKC 14/09 A2990
 
KSFO - San Francisco, California, USA
Distance from station: NW 30mi, 49km
Updated: Thu, 21-Sep-2017 7:56am PDT
Few Clouds
Few Clouds
 Wind from W
Wind: W 18 mph , 30 km/h
Temperature: 57°F , 14°C
Dew Point: 48°F , 9°C
Humidity: 72%
Barometer: 29.89 inHg , 1012.2 hPa
Clouds: Few Clouds
Visibility: 10 miles , 16 km
Cloud details: Few Clouds 1500 ft
2017/09/21 14:56 KSFO 211456Z 28016KT 10SM FEW015 14/09 A2989 RMK AO2 SLP122 T01440094 53008
KE16 - San Martin, California, USA
Distance from station: ESE 27mi, 43km
Updated: Thu, 21-Sep-2017 8:35am PDT
Clear
Clear
 Wind from calm
Wind: Calm
Temperature: 57°F , 14°C
Dew Point: 46°F , 8°C
Humidity: 67%
Barometer: 29.92 inHg , 1013.2 hPa
Clouds: Clear
Visibility: 10 miles , 16 km
2017/09/21 15:35 KE16 211535Z AUTO 00000KT 10SM CLR 14/08 A2992 RMK AO2
 
KWVI - Watsonville, California, USA
Distance from station: SSE 27mi, 44km
Updated: Thu, 21-Sep-2017 7:53am PDT
Clear
Clear
 Wind from NW
Wind: NW 3 mph , 6 km/h
Temperature: 52°F , 11°C
Dew Point: 46°F , 8°C
Humidity: 82%
Barometer: 29.91 inHg , 1012.9 hPa
Clouds: Clear
Visibility: 10 miles , 16 km
2017/09/21 14:53 KWVI 211453Z AUTO 31003KT 10SM CLR 11/08 A2991 RMK AO2 SLP128 T01110083 53010
KHAF - Half Moon Bay, California, USA
Distance from station: WNW 31mi, 50km
Updated: Thu, 21-Sep-2017 8:35am PDT
Clear
Clear
 Wind from NNW
Wind: NNW 20 mph , 31 km/h, Gust: 24 mph , 39 km/h
Temperature: 59°F , 15°C
Barometer: 29.88 inHg , 1011.9 hPa
Clouds: Clear
Visibility: 9 miles , 14 km
2017/09/21 15:35 KHAF 211535Z AUTO 33017G21KT 9SM CLR 15/ A2988 RMK AO2
 
KHWD - Hayward, California, USA
Distance from station: N 28mi, 44km
Updated: Thu, 21-Sep-2017 7:54am PDT
Clear
Clear
 Wind from NNE
Wind: NNE 3 mph , 6 km/h
Temperature: 57°F , 14°C
Dew Point: 45°F , 7°C
Humidity: 63%
Barometer: 29.89 inHg , 1012.2 hPa
Clouds: Clear
Visibility: 10 miles , 16 km
2017/09/21 14:54 KHWD 211454Z AUTO 02003KT 10SM CLR 14/07 A2989 RMK AO2 SLP130 T01390072 53010
KLVK - Livermore, California, USA
Distance from station: NNE 31mi, 51km
Updated: Thu, 21-Sep-2017 7:53am PDT
Clear
Clear
 Wind from calm
Wind: Calm
Temperature: 55°F , 13°C
Dew Point: 46°F , 8°C
Humidity: 72%
Barometer: 29.88 inHg , 1011.9 hPa
Clouds: Clear
Visibility: 10 miles , 16 km
2017/09/21 14:53 KLVK 211453Z 00000KT 10SM CLR 13/08 A2988 RMK AO2 SLP116 T01280078 53010